sensor_id;sensor_type;location;lat;lon;timestamp;P1;durP1;ratioP1;P2;durP2;ratioP2
77287;SDS011;66345;42.694;23.346;2023-05-01T00:02:00;15.83;;;8.67;;
77287;SDS011;66345;42.694;23.346;2023-05-01T00:04:26;12.53;;;8.03;;
77287;SDS011;66345;42.694;23.346;2023-05-01T00:06:51;12.90;;;7.75;;
77287;SDS011;66345;42.694;23.346;2023-05-01T00:09:17;11.07;;;6.87;;
77287;SDS011;66345;42.694;23.346;2023-05-01T00:11:42;11.10;;;6.60;;
77287;SDS011;66345;42.694;23.346;2023-05-01T00:14:08;11.47;;;6.33;;
77287;SDS011;66345;42.694;23.346;2023-05-01T00:16:33;9.45;;;5.95;;
77287;SDS011;66345;42.694;23.346;2023-05-01T00:19:00;8.95;;;5.82;;
77287;SDS011;66345;42.694;23.346;2023-05-01T00:21:26;9.27;;;6.13;;
77287;SDS011;66345;42.694;23.346;2023-05-01T00:23:52;14.30;;;7.00;;
77287;SDS011;66345;42.694;23.346;2023-05-01T00:26:18;12.00;;;7.47;;
77287;SDS011;66345;42.694;23.346;2023-05-01T00:28:43;11.48;;;7.32;;
77287;SDS011;66345;42.694;23.346;2023-05-01T00:31:09;15.67;;;7.47;;
77287;SDS011;66345;42.694;23.346;2023-05-01T00:33:34;12.73;;;7.77;;
77287;SDS011;66345;42.694;23.346;2023-05-01T00:36:01;12.07;;;6.93;;
77287;SDS011;66345;42.694;23.346;2023-05-01T00:38:26;13.70;;;7.40;;
77287;SDS011;66345;42.694;23.346;2023-05-01T00:40:51;13.10;;;8.50;;
77287;SDS011;66345;42.694;23.346;2023-05-01T00:43:17;14.23;;;8.40;;
77287;SDS011;66345;42.694;23.346;2023-05-01T00:45:43;12.98;;;8.50;;
77287;SDS011;66345;42.694;23.346;2023-05-01T00:48:10;13.43;;;8.55;;
77287;SDS011;66345;42.694;23.346;2023-05-01T00:50:35;14.40;;;8.55;;
77287;SDS011;66345;42.694;23.346;2023-05-01T00:53:01;14.90;;;8.47;;
77287;SDS011;66345;42.694;23.346;2023-05-01T00:55:26;16.38;;;9.13;;
77287;SDS011;66345;42.694;23.346;2023-05-01T00:57:53;13.07;;;7.93;;
77287;SDS011;66345;42.694;23.346;2023-05-01T01:00:20;14.20;;;8.18;;
77287;SDS011;66345;42.694;23.346;2023-05-01T01:02:48;14.88;;;7.90;;
77287;SDS011;66345;42.694;23.346;2023-05-01T01:05:14;15.57;;;8.32;;
77287;SDS011;66345;42.694;23.346;2023-05-01T01:07:48;13.33;;;8.00;;
77287;SDS011;66345;42.694;23.346;2023-05-01T01:13:31;12.95;;;8.40;;
77287;SDS011;66345;42.694;23.346;2023-05-01T01:18:56;14.50;;;9.33;;
77287;SDS011;66345;42.694;23.346;2023-05-01T01:21:37;14.82;;;9.20;;
77287;SDS011;66345;42.694;23.346;2023-05-01T01:24:11;15.30;;;9.35;;
77287;SDS011;66345;42.694;23.346;2023-05-01T01:29:50;14.18;;;8.80;;
77287;SDS011;66345;42.694;23.346;2023-05-01T01:35:13;14.32;;;8.88;;
77287;SDS011;66345;42.694;23.346;2023-05-01T01:38:03;14.25;;;8.10;;
77287;SDS011;66345;42.694;23.346;2023-05-01T01:40:44;14.23;;;8.40;;
77287;SDS011;66345;42.694;23.346;2023-05-01T01:43:13;13.95;;;8.65;;
77287;SDS011;66345;42.694;23.346;2023-05-01T01:45:42;14.13;;;8.32;;
77287;SDS011;66345;42.694;23.346;2023-05-01T01:48:15;14.23;;;8.70;;
77287;SDS011;66345;42.694;23.346;2023-05-01T01:50:44;13.27;;;8.65;;
77287;SDS011;66345;42.694;23.346;2023-05-01T01:53:12;13.70;;;8.80;;
77287;SDS011;66345;42.694;23.346;2023-05-01T01:55:42;13.75;;;8.27;;
77287;SDS011;66345;42.694;23.346;2023-05-01T01:58:09;14.18;;;8.45;;
77287;SDS011;66345;42.694;23.346;2023-05-01T02:00:38;14.88;;;8.68;;
77287;SDS011;66345;42.694;23.346;2023-05-01T02:03:05;13.85;;;8.80;;
77287;SDS011;66345;42.694;23.346;2023-05-01T02:05:34;13.80;;;8.98;;
77287;SDS011;66345;42.694;23.346;2023-05-01T02:08:01;14.05;;;8.40;;
77287;SDS011;66345;42.694;23.346;2023-05-01T02:10:29;12.73;;;8.13;;
77287;SDS011;66345;42.694;23.346;2023-05-01T02:12:56;14.00;;;8.63;;
77287;SDS011;66345;42.694;23.346;2023-05-01T02:15:23;15.00;;;8.98;;
77287;SDS011;66345;42.694;23.346;2023-05-01T02:17:50;15.18;;;9.10;;
77287;SDS011;66345;42.694;23.346;2023-05-01T02:20:16;15.43;;;8.93;;
77287;SDS011;66345;42.694;23.346;2023-05-01T02:22:43;15.10;;;8.40;;
77287;SDS011;66345;42.694;23.346;2023-05-01T02:25:11;14.82;;;8.52;;
77287;SDS011;66345;42.694;23.346;2023-05-01T02:27:39;17.75;;;9.82;;
77287;SDS011;66345;42.694;23.346;2023-05-01T02:30:07;15.65;;;9.05;;
77287;SDS011;66345;42.694;23.346;2023-05-01T02:32:33;14.70;;;8.95;;
77287;SDS011;66345;42.694;23.346;2023-05-01T02:34:59;15.40;;;8.87;;
77287;SDS011;66345;42.694;23.346;2023-05-01T02:37:25;15.80;;;9.30;;
77287;SDS011;66345;42.694;23.346;2023-05-01T02:39:52;18.15;;;9.65;;
77287;SDS011;66345;42.694;23.346;2023-05-01T02:42:18;18.63;;;10.27;;
77287;SDS011;66345;42.694;23.346;2023-05-01T02:44:48;15.18;;;8.98;;
77287;SDS011;66345;42.694;23.346;2023-05-01T02:47:19;18.65;;;10.10;;
77287;SDS011;66345;42.694;23.346;2023-05-01T02:49:46;14.52;;;9.40;;
77287;SDS011;66345;42.694;23.346;2023-05-01T02:52:15;14.90;;;8.88;;
77287;SDS011;66345;42.694;23.346;2023-05-01T02:54:45;15.03;;;7.30;;
77287;SDS011;66345;42.694;23.346;2023-05-01T02:57:11;13.45;;;6.60;;
77287;SDS011;66345;42.694;23.346;2023-05-01T02:59:36;11.20;;;6.90;;
77287;SDS011;66345;42.694;23.346;2023-05-01T03:02:02;12.32;;;6.70;;
77287;SDS011;66345;42.694;23.346;2023-05-01T03:04:28;10.27;;;6.43;;
77287;SDS011;66345;42.694;23.346;2023-05-01T03:06:53;10.73;;;6.13;;
77287;SDS011;66345;42.694;23.346;2023-05-01T03:09:19;12.27;;;6.53;;
77287;SDS011;66345;42.694;23.346;2023-05-01T03:11:46;11.10;;;6.45;;
77287;SDS011;66345;42.694;23.346;2023-05-01T03:14:11;9.93;;;6.35;;
77287;SDS011;66345;42.694;23.346;2023-05-01T03:16:37;11.90;;;6.90;;
77287;SDS011;66345;42.694;23.346;2023-05-01T03:19:02;9.47;;;6.50;;
77287;SDS011;66345;42.694;23.346;2023-05-01T03:21:28;14.10;;;7.20;;
77287;SDS011;66345;42.694;23.346;2023-05-01T03:23:53;11.65;;;5.90;;
77287;SDS011;66345;42.694;23.346;2023-05-01T03:26:18;12.03;;;6.57;;
77287;SDS011;66345;42.694;23.346;2023-05-01T03:28:44;11.03;;;6.60;;
77287;SDS011;66345;42.694;23.346;2023-05-01T03:31:10;11.73;;;6.13;;
77287;SDS011;66345;42.694;23.346;2023-05-01T03:33:36;10.48;;;6.35;;
77287;SDS011;66345;42.694;23.346;2023-05-01T03:36:02;10.82;;;6.05;;
77287;SDS011;66345;42.694;23.346;2023-05-01T03:38:30;13.43;;;5.57;;
77287;SDS011;66345;42.694;23.346;2023-05-01T03:40:56;9.90;;;5.78;;
77287;SDS011;66345;42.694;23.346;2023-05-01T03:43:22;9.73;;;5.60;;
77287;SDS011;66345;42.694;23.346;2023-05-01T03:45:48;12.10;;;5.95;;
77287;SDS011;66345;42.694;23.346;2023-05-01T03:48:14;14.50;;;6.40;;
77287;SDS011;66345;42.694;23.346;2023-05-01T03:50:39;13.70;;;6.57;;
77287;SDS011;66345;42.694;23.346;2023-05-01T03:53:06;10.77;;;6.30;;
77287;SDS011;66345;42.694;23.346;2023-05-01T03:55:31;10.50;;;6.72;;
77287;SDS011;66345;42.694;23.346;2023-05-01T03:57:57;14.13;;;7.00;;
77287;SDS011;66345;42.694;23.346;2023-05-01T04:00:23;12.10;;;6.50;;
77287;SDS011;66345;42.694;23.346;2023-05-01T04:02:48;11.30;;;6.70;;
77287;SDS011;66345;42.694;23.346;2023-05-01T04:05:14;10.57;;;6.38;;
77287;SDS011;66345;42.694;23.346;2023-05-01T04:07:39;10.17;;;6.40;;
77287;SDS011;66345;42.694;23.346;2023-05-01T04:10:05;10.05;;;5.97;;
77287;SDS011;66345;42.694;23.346;2023-05-01T04:12:33;12.88;;;6.43;;
77287;SDS011;66345;42.694;23.346;2023-05-01T04:14:59;11.52;;;6.25;;
77287;SDS011;66345;42.694;23.346;2023-05-01T04:17:24;10.07;;;6.27;;
77287;SDS011;66345;42.694;23.346;2023-05-01T04:19:50;11.77;;;6.82;;
77287;SDS011;66345;42.694;23.346;2023-05-01T04:22:15;12.57;;;6.57;;
77287;SDS011;66345;42.694;23.346;2023-05-01T04:24:41;11.93;;;6.33;;
77287;SDS011;66345;42.694;23.346;2023-05-01T04:27:07;12.40;;;6.82;;
77287;SDS011;66345;42.694;23.346;2023-05-01T04:29:33;12.10;;;6.37;;
77287;SDS011;66345;42.694;23.346;2023-05-01T04:31:58;12.35;;;6.60;;
77287;SDS011;66345;42.694;23.346;2023-05-01T04:34:23;10.40;;;6.60;;
77287;SDS011;66345;42.694;23.346;2023-05-01T04:36:53;11.65;;;7.22;;
77287;SDS011;66345;42.694;23.346;2023-05-01T04:39:21;12.83;;;7.33;;
77287;SDS011;66345;42.694;23.346;2023-05-01T04:41:47;12.65;;;7.10;;
77287;SDS011;66345;42.694;23.346;2023-05-01T04:44:13;13.32;;;7.13;;
77287;SDS011;66345;42.694;23.346;2023-05-01T04:46:39;16.70;;;8.10;;
77287;SDS011;66345;42.694;23.346;2023-05-01T04:49:04;17.42;;;7.70;;
77287;SDS011;66345;42.694;23.346;2023-05-01T04:51:29;13.88;;;7.10;;
77287;SDS011;66345;42.694;23.346;2023-05-01T04:53:55;12.37;;;8.03;;
77287;SDS011;66345;42.694;23.346;2023-05-01T04:56:20;15.17;;;9.00;;
77287;SDS011;66345;42.694;23.346;2023-05-01T04:58:46;15.80;;;6.97;;
77287;SDS011;66345;42.694;23.346;2023-05-01T05:01:11;14.80;;;7.88;;
77287;SDS011;66345;42.694;23.346;2023-05-01T05:03:37;17.30;;;8.50;;
77287;SDS011;66345;42.694;23.346;2023-05-01T05:06:02;11.27;;;7.03;;
77287;SDS011;66345;42.694;23.346;2023-05-01T05:08:28;11.18;;;7.20;;
77287;SDS011;66345;42.694;23.346;2023-05-01T05:10:57;15.90;;;7.17;;
77287;SDS011;66345;42.694;23.346;2023-05-01T05:13:24;10.05;;;6.32;;
77287;SDS011;66345;42.694;23.346;2023-05-01T05:15:50;8.83;;;5.83;;
77287;SDS011;66345;42.694;23.346;2023-05-01T05:18:15;15.27;;;6.00;;
77287;SDS011;66345;42.694;23.346;2023-05-01T05:20:41;12.60;;;6.70;;
77287;SDS011;66345;42.694;23.346;2023-05-01T05:23:06;11.27;;;6.70;;
77287;SDS011;66345;42.694;23.346;2023-05-01T05:25:32;15.00;;;7.95;;
77287;SDS011;66345;42.694;23.346;2023-05-01T05:27:57;14.00;;;7.65;;
77287;SDS011;66345;42.694;23.346;2023-05-01T05:30:24;12.98;;;7.70;;
77287;SDS011;66345;42.694;23.346;2023-05-01T05:32:50;14.10;;;6.80;;
77287;SDS011;66345;42.694;23.346;2023-05-01T05:35:15;10.98;;;7.13;;
77287;SDS011;66345;42.694;23.346;2023-05-01T05:37:41;12.43;;;7.17;;
77287;SDS011;66345;42.694;23.346;2023-05-01T05:40:07;12.80;;;7.23;;
77287;SDS011;66345;42.694;23.346;2023-05-01T05:42:33;16.17;;;6.68;;
77287;SDS011;66345;42.694;23.346;2023-05-01T05:44:58;10.73;;;6.90;;
77287;SDS011;66345;42.694;23.346;2023-05-01T05:47:24;11.00;;;7.15;;
77287;SDS011;66345;42.694;23.346;2023-05-01T05:49:49;12.37;;;6.90;;
77287;SDS011;66345;42.694;23.346;2023-05-01T05:52:15;10.80;;;7.07;;
77287;SDS011;66345;42.694;23.346;2023-05-01T05:54:41;11.82;;;7.20;;
77287;SDS011;66345;42.694;23.346;2023-05-01T05:57:07;12.52;;;6.63;;
77287;SDS011;66345;42.694;23.346;2023-05-01T05:59:32;8.63;;;6.33;;
77287;SDS011;66345;42.694;23.346;2023-05-01T06:01:58;9.65;;;6.20;;
77287;SDS011;66345;42.694;23.346;2023-05-01T06:04:24;10.30;;;6.33;;
77287;SDS011;66345;42.694;23.346;2023-05-01T06:06:49;9.73;;;6.55;;
77287;SDS011;66345;42.694;23.346;2023-05-01T06:09:15;10.43;;;6.17;;
77287;SDS011;66345;42.694;23.346;2023-05-01T06:11:43;11.25;;;6.40;;
77287;SDS011;66345;42.694;23.346;2023-05-01T06:14:08;9.10;;;6.00;;
77287;SDS011;66345;42.694;23.346;2023-05-01T06:16:34;9.68;;;5.60;;
77287;SDS011;66345;42.694;23.346;2023-05-01T06:19:00;9.23;;;5.50;;
77287;SDS011;66345;42.694;23.346;2023-05-01T06:21:25;8.23;;;5.80;;
77287;SDS011;66345;42.694;23.346;2023-05-01T06:23:51;10.50;;;5.60;;
77287;SDS011;66345;42.694;23.346;2023-05-01T06:26:16;7.17;;;5.80;;
77287;SDS011;66345;42.694;23.346;2023-05-01T06:28:42;6.70;;;5.30;;
77287;SDS011;66345;42.694;23.346;2023-05-01T06:31:07;8.18;;;5.80;;
77287;SDS011;66345;42.694;23.346;2023-05-01T06:33:32;9.87;;;5.73;;
77287;SDS011;66345;42.694;23.346;2023-05-01T06:35:58;9.53;;;6.70;;
77287;SDS011;66345;42.694;23.346;2023-05-01T06:38:24;8.77;;;5.88;;
77287;SDS011;66345;42.694;23.346;2023-05-01T06:40:51;7.17;;;5.43;;
77287;SDS011;66345;42.694;23.346;2023-05-01T06:43:16;8.43;;;5.90;;
77287;SDS011;66345;42.694;23.346;2023-05-01T06:45:42;10.50;;;6.13;;
77287;SDS011;66345;42.694;23.346;2023-05-01T06:48:07;8.03;;;5.47;;
77287;SDS011;66345;42.694;23.346;2023-05-01T06:50:33;9.50;;;5.95;;
77287;SDS011;66345;42.694;23.346;2023-05-01T06:52:58;9.37;;;6.20;;
77287;SDS011;66345;42.694;23.346;2023-05-01T06:55:25;8.13;;;5.45;;
77287;SDS011;66345;42.694;23.346;2023-05-01T06:57:51;9.73;;;6.68;;
77287;SDS011;66345;42.694;23.346;2023-05-01T07:00:17;9.00;;;6.20;;
77287;SDS011;66345;42.694;23.346;2023-05-01T07:02:43;9.38;;;6.57;;
77287;SDS011;66345;42.694;23.346;2023-05-01T07:05:09;8.70;;;6.07;;
77287;SDS011;66345;42.694;23.346;2023-05-01T07:07:35;9.70;;;6.27;;
77287;SDS011;66345;42.694;23.346;2023-05-01T07:10:00;9.13;;;6.10;;
77287;SDS011;66345;42.694;23.346;2023-05-01T07:12:27;9.77;;;5.97;;
77287;SDS011;66345;42.694;23.346;2023-05-01T07:14:53;7.73;;;5.93;;
77287;SDS011;66345;42.694;23.346;2023-05-01T07:17:20;8.85;;;6.15;;
77287;SDS011;66345;42.694;23.346;2023-05-01T07:19:46;10.00;;;6.53;;
77287;SDS011;66345;42.694;23.346;2023-05-01T07:22:11;8.97;;;6.63;;
77287;SDS011;66345;42.694;23.346;2023-05-01T07:24:37;7.93;;;6.43;;
77287;SDS011;66345;42.694;23.346;2023-05-01T07:27:02;9.97;;;6.90;;
77287;SDS011;66345;42.694;23.346;2023-05-01T07:29:28;10.05;;;7.20;;
77287;SDS011;66345;42.694;23.346;2023-05-01T07:31:53;9.73;;;7.30;;
77287;SDS011;66345;42.694;23.346;2023-05-01T07:34:19;9.45;;;6.90;;
77287;SDS011;66345;42.694;23.346;2023-05-01T07:36:45;10.17;;;7.77;;
77287;SDS011;66345;42.694;23.346;2023-05-01T07:39:10;11.77;;;7.43;;
77287;SDS011;66345;42.694;23.346;2023-05-01T07:41:37;10.60;;;7.37;;
77287;SDS011;66345;42.694;23.346;2023-05-01T07:44:03;9.95;;;6.82;;
77287;SDS011;66345;42.694;23.346;2023-05-01T07:46:28;10.63;;;6.20;;
77287;SDS011;66345;42.694;23.346;2023-05-01T07:48:54;9.47;;;6.40;;
77287;SDS011;66345;42.694;23.346;2023-05-01T07:51:19;11.10;;;7.28;;
77287;SDS011;66345;42.694;23.346;2023-05-01T07:53:45;11.97;;;6.57;;
77287;SDS011;66345;42.694;23.346;2023-05-01T07:56:12;10.60;;;6.80;;
77287;SDS011;66345;42.694;23.346;2023-05-01T07:58:37;9.70;;;6.93;;
77287;SDS011;66345;42.694;23.346;2023-05-01T08:01:05;11.68;;;6.78;;
77287;SDS011;66345;42.694;23.346;2023-05-01T08:03:30;10.07;;;6.82;;
77287;SDS011;66345;42.694;23.346;2023-05-01T08:05:56;8.53;;;6.80;;
77287;SDS011;66345;42.694;23.346;2023-05-01T08:08:22;10.10;;;7.25;;
77287;SDS011;66345;42.694;23.346;2023-05-01T08:10:48;10.55;;;6.88;;
77287;SDS011;66345;42.694;23.346;2023-05-01T08:13:14;11.63;;;7.50;;
77287;SDS011;66345;42.694;23.346;2023-05-01T08:15:40;10.23;;;6.65;;
77287;SDS011;66345;42.694;23.346;2023-05-01T08:18:07;9.70;;;6.27;;
77287;SDS011;66345;42.694;23.346;2023-05-01T08:20:34;10.23;;;6.07;;
77287;SDS011;66345;42.694;23.346;2023-05-01T08:23:00;9.35;;;6.40;;
77287;SDS011;66345;42.694;23.346;2023-05-01T08:25:25;9.13;;;6.23;;
77287;SDS011;66345;42.694;23.346;2023-05-01T08:27:51;7.57;;;4.97;;
77287;SDS011;66345;42.694;23.346;2023-05-01T08:30:16;6.73;;;5.07;;
77287;SDS011;66345;42.694;23.346;2023-05-01T08:32:41;7.27;;;5.20;;
77287;SDS011;66345;42.694;23.346;2023-05-01T08:35:07;7.27;;;5.10;;
77287;SDS011;66345;42.694;23.346;2023-05-01T08:37:32;6.93;;;4.97;;
77287;SDS011;66345;42.694;23.346;2023-05-01T08:39:59;7.38;;;4.97;;
77287;SDS011;66345;42.694;23.346;2023-05-01T08:42:24;6.72;;;4.60;;
77287;SDS011;66345;42.694;23.346;2023-05-01T08:44:50;5.77;;;4.47;;
77287;SDS011;66345;42.694;23.346;2023-05-01T08:47:20;6.53;;;4.60;;
77287;SDS011;66345;42.694;23.346;2023-05-01T08:49:46;7.50;;;4.88;;
77287;SDS011;66345;42.694;23.346;2023-05-01T08:52:14;5.90;;;4.22;;
77287;SDS011;66345;42.694;23.346;2023-05-01T08:54:43;7.07;;;3.70;;
77287;SDS011;66345;42.694;23.346;2023-05-01T08:57:11;4.85;;;3.03;;
77287;SDS011;66345;42.694;23.346;2023-05-01T08:59:37;4.43;;;2.70;;
77287;SDS011;66345;42.694;23.346;2023-05-01T09:02:04;4.75;;;2.88;;
77287;SDS011;66345;42.694;23.346;2023-05-01T09:04:31;4.68;;;2.97;;
77287;SDS011;66345;42.694;23.346;2023-05-01T09:06:58;4.55;;;3.35;;
77287;SDS011;66345;42.694;23.346;2023-05-01T09:09:25;4.78;;;2.88;;
77287;SDS011;66345;42.694;23.346;2023-05-01T09:11:58;3.93;;;2.50;;
77287;SDS011;66345;42.694;23.346;2023-05-01T09:14:25;3.53;;;2.65;;
77287;SDS011;66345;42.694;23.346;2023-05-01T09:16:51;4.18;;;2.78;;
77287;SDS011;66345;42.694;23.346;2023-05-01T09:19:17;4.30;;;2.57;;
77287;SDS011;66345;42.694;23.346;2023-05-01T09:21:43;5.50;;;2.78;;
77287;SDS011;66345;42.694;23.346;2023-05-01T09:24:09;4.22;;;2.92;;
77287;SDS011;66345;42.694;23.346;2023-05-01T09:26:35;3.83;;;2.60;;
77287;SDS011;66345;42.694;23.346;2023-05-01T09:29:05;4.30;;;2.70;;
77287;SDS011;66345;42.694;23.346;2023-05-01T09:31:31;4.97;;;2.80;;
77287;SDS011;66345;42.694;23.346;2023-05-01T09:33:58;4.57;;;2.87;;
77287;SDS011;66345;42.694;23.346;2023-05-01T09:36:25;5.13;;;2.83;;
77287;SDS011;66345;42.694;23.346;2023-05-01T09:38:52;4.50;;;3.00;;
77287;SDS011;66345;42.694;23.346;2023-05-01T09:41:18;4.63;;;2.93;;
77287;SDS011;66345;42.694;23.346;2023-05-01T09:43:48;4.07;;;2.70;;
77287;SDS011;66345;42.694;23.346;2023-05-01T09:46:15;5.57;;;2.67;;
77287;SDS011;66345;42.694;23.346;2023-05-01T09:48:43;7.75;;;3.53;;
77287;SDS011;66345;42.694;23.346;2023-05-01T09:51:34;4.65;;;3.17;;
77287;SDS011;66345;42.694;23.346;2023-05-01T09:54:00;6.80;;;3.03;;
77287;SDS011;66345;42.694;23.346;2023-05-01T09:56:28;5.80;;;3.30;;
77287;SDS011;66345;42.694;23.346;2023-05-01T09:58:56;5.10;;;3.60;;
77287;SDS011;66345;42.694;23.346;2023-05-01T10:01:40;5.60;;;3.40;;
77287;SDS011;66345;42.694;23.346;2023-05-01T10:04:10;4.82;;;3.45;;
77287;SDS011;66345;42.694;23.346;2023-05-01T10:06:36;4.50;;;3.10;;
77287;SDS011;66345;42.694;23.346;2023-05-01T10:09:03;5.72;;;3.20;;
77287;SDS011;66345;42.694;23.346;2023-05-01T10:11:50;6.63;;;3.28;;
77287;SDS011;66345;42.694;23.346;2023-05-01T10:14:17;5.23;;;2.77;;
77287;SDS011;66345;42.694;23.346;2023-05-01T10:16:44;7.35;;;3.00;;
77287;SDS011;66345;42.694;23.346;2023-05-01T10:19:11;4.90;;;3.30;;
77287;SDS011;66345;42.694;23.346;2023-05-01T10:21:37;5.72;;;3.50;;
77287;SDS011;66345;42.694;23.346;2023-05-01T10:24:03;4.03;;;2.90;;
77287;SDS011;66345;42.694;23.346;2023-05-01T10:26:31;5.22;;;3.10;;
77287;SDS011;66345;42.694;23.346;2023-05-01T10:28:59;4.50;;;2.50;;
77287;SDS011;66345;42.694;23.346;2023-05-01T10:31:25;4.88;;;2.58;;
77287;SDS011;66345;42.694;23.346;2023-05-01T10:33:52;5.07;;;2.80;;
77287;SDS011;66345;42.694;23.346;2023-05-01T10:36:26;4.32;;;2.70;;
77287;SDS011;66345;42.694;23.346;2023-05-01T10:38:52;4.63;;;2.40;;
77287;SDS011;66345;42.694;23.346;2023-05-01T10:41:59;4.13;;;2.00;;
77287;SDS011;66345;42.694;23.346;2023-05-01T10:44:22;5.37;;;2.10;;
77287;SDS011;66345;42.694;23.346;2023-05-01T10:46:48;4.75;;;1.80;;
77287;SDS011;66345;42.694;23.346;2023-05-01T10:49:13;4.03;;;1.90;;
77287;SDS011;66345;42.694;23.346;2023-05-01T10:54:29;4.20;;;1.50;;
77287;SDS011;66345;42.694;23.346;2023-05-01T10:56:57;5.40;;;1.90;;
77287;SDS011;66345;42.694;23.346;2023-05-01T11:00:10;5.38;;;1.60;;
77287;SDS011;66345;42.694;23.346;2023-05-01T11:02:23;6.00;;;2.13;;
77287;SDS011;66345;42.694;23.346;2023-05-01T11:04:50;4.25;;;1.80;;
77287;SDS011;66345;42.694;23.346;2023-05-01T11:07:17;3.77;;;1.90;;
77287;SDS011;66345;42.694;23.346;2023-05-01T11:10:01;3.47;;;1.90;;
77287;SDS011;66345;42.694;23.346;2023-05-01T11:12:46;3.88;;;1.70;;
77287;SDS011;66345;42.694;23.346;2023-05-01T11:15:29;5.07;;;1.80;;
77287;SDS011;66345;42.694;23.346;2023-05-01T11:17:55;5.17;;;1.80;;
77287;SDS011;66345;42.694;23.346;2023-05-01T11:22:49;3.43;;;1.70;;
77287;SDS011;66345;42.694;23.346;2023-05-01T11:25:17;3.20;;;1.60;;
77287;SDS011;66345;42.694;23.346;2023-05-01T11:27:48;3.58;;;1.83;;
77287;SDS011;66345;42.694;23.346;2023-05-01T11:30:15;4.38;;;1.63;;
77287;SDS011;66345;42.694;23.346;2023-05-01T11:32:44;3.97;;;1.70;;
77287;SDS011;66345;42.694;23.346;2023-05-01T11:35:18;3.87;;;1.70;;
77287;SDS011;66345;42.694;23.346;2023-05-01T11:37:45;5.18;;;1.60;;
77287;SDS011;66345;42.694;23.346;2023-05-01T11:40:20;3.90;;;1.58;;
77287;SDS011;66345;42.694;23.346;2023-05-01T11:42:49;4.13;;;1.70;;
77287;SDS011;66345;42.694;23.346;2023-05-01T11:45:24;4.35;;;1.60;;
77287;SDS011;66345;42.694;23.346;2023-05-01T11:47:49;3.80;;;1.50;;
77287;SDS011;66345;42.694;23.346;2023-05-01T11:50:15;3.63;;;1.50;;
77287;SDS011;66345;42.694;23.346;2023-05-01T11:52:44;4.25;;;1.50;;
77287;SDS011;66345;42.694;23.346;2023-05-01T11:55:13;4.22;;;1.58;;
77287;SDS011;66345;42.694;23.346;2023-05-01T12:00:24;3.95;;;1.90;;
77287;SDS011;66345;42.694;23.346;2023-05-01T12:02:58;5.05;;;1.60;;
77287;SDS011;66345;42.694;23.346;2023-05-01T12:05:26;3.80;;;1.42;;
77287;SDS011;66345;42.694;23.346;2023-05-01T12:10:40;5.82;;;1.73;;
77287;SDS011;66345;42.694;23.346;2023-05-01T12:13:08;7.53;;;1.60;;
77287;SDS011;66345;42.694;23.346;2023-05-01T12:15:37;5.40;;;1.67;;
77287;SDS011;66345;42.694;23.346;2023-05-01T12:18:05;3.60;;;1.48;;
77287;SDS011;66345;42.694;23.346;2023-05-01T12:20:34;3.07;;;1.27;;
77287;SDS011;66345;42.694;23.346;2023-05-01T12:23:05;3.15;;;1.40;;
77287;SDS011;66345;42.694;23.346;2023-05-01T12:25:32;5.20;;;1.52;;
77287;SDS011;66345;42.694;23.346;2023-05-01T12:28:00;4.33;;;1.57;;
77287;SDS011;66345;42.694;23.346;2023-05-01T12:30:26;3.03;;;1.50;;
77287;SDS011;66345;42.694;23.346;2023-05-01T12:32:53;3.95;;;1.60;;
77287;SDS011;66345;42.694;23.346;2023-05-01T12:35:20;4.90;;;1.60;;
77287;SDS011;66345;42.694;23.346;2023-05-01T12:37:46;4.70;;;1.50;;
77287;SDS011;66345;42.694;23.346;2023-05-01T12:40:12;3.45;;;1.48;;
77287;SDS011;66345;42.694;23.346;2023-05-01T12:42:38;5.18;;;1.73;;
77287;SDS011;66345;42.694;23.346;2023-05-01T12:45:05;3.35;;;1.42;;
77287;SDS011;66345;42.694;23.346;2023-05-01T12:47:37;3.80;;;1.48;;
77287;SDS011;66345;42.694;23.346;2023-05-01T12:50:03;3.20;;;1.48;;
77287;SDS011;66345;42.694;23.346;2023-05-01T12:52:29;3.75;;;1.00;;
77287;SDS011;66345;42.694;23.346;2023-05-01T12:55:02;3.27;;;1.30;;
77287;SDS011;66345;42.694;23.346;2023-05-01T12:57:29;3.47;;;1.50;;
77287;SDS011;66345;42.694;23.346;2023-05-01T12:59:58;3.30;;;1.40;;
77287;SDS011;66345;42.694;23.346;2023-05-01T13:02:30;3.42;;;1.30;;
77287;SDS011;66345;42.694;23.346;2023-05-01T13:05:06;5.07;;;1.70;;
77287;SDS011;66345;42.694;23.346;2023-05-01T13:07:33;4.65;;;1.67;;
77287;SDS011;66345;42.694;23.346;2023-05-01T13:09:59;5.07;;;1.50;;
77287;SDS011;66345;42.694;23.346;2023-05-01T13:12:27;4.13;;;1.70;;
77287;SDS011;66345;42.694;23.346;2023-05-01T13:14:53;5.50;;;1.60;;
77287;SDS011;66345;42.694;23.346;2023-05-01T13:19:55;4.43;;;1.77;;
77287;SDS011;66345;42.694;23.346;2023-05-01T13:24:57;5.15;;;1.50;;
77287;SDS011;66345;42.694;23.346;2023-05-01T13:27:22;3.50;;;1.17;;
77287;SDS011;66345;42.694;23.346;2023-05-01T13:29:52;3.30;;;1.27;;
77287;SDS011;66345;42.694;23.346;2023-05-01T13:32:22;2.90;;;1.20;;
77287;SDS011;66345;42.694;23.346;2023-05-01T13:34:48;2.75;;;1.20;;
77287;SDS011;66345;42.694;23.346;2023-05-01T13:37:15;4.83;;;1.30;;
77287;SDS011;66345;42.694;23.346;2023-05-01T13:39:41;4.10;;;1.33;;
77287;SDS011;66345;42.694;23.346;2023-05-01T13:42:10;3.55;;;1.33;;
77287;SDS011;66345;42.694;23.346;2023-05-01T13:44:43;3.65;;;1.10;;
77287;SDS011;66345;42.694;23.346;2023-05-01T13:47:13;2.95;;;1.20;;
77287;SDS011;66345;42.694;23.346;2023-05-01T13:49:41;3.78;;;1.42;;
77287;SDS011;66345;42.694;23.346;2023-05-01T13:52:09;3.00;;;0.95;;
77287;SDS011;66345;42.694;23.346;2023-05-01T13:54:38;3.38;;;1.30;;
77287;SDS011;66345;42.694;23.346;2023-05-01T13:57:06;3.20;;;1.20;;
77287;SDS011;66345;42.694;23.346;2023-05-01T13:59:39;4.20;;;1.30;;
77287;SDS011;66345;42.694;23.346;2023-05-01T14:04:46;3.42;;;1.30;;
77287;SDS011;66345;42.694;23.346;2023-05-01T14:07:19;3.28;;;1.40;;
77287;SDS011;66345;42.694;23.346;2023-05-01T14:09:51;2.60;;;1.03;;
77287;SDS011;66345;42.694;23.346;2023-05-01T14:12:28;3.33;;;1.20;;
77287;SDS011;66345;42.694;23.346;2023-05-01T14:14:55;2.55;;;1.00;;
77287;SDS011;66345;42.694;23.346;2023-05-01T14:17:33;3.15;;;1.10;;
77287;SDS011;66345;42.694;23.346;2023-05-01T14:20:01;3.28;;;1.35;;
77287;SDS011;66345;42.694;23.346;2023-05-01T14:22:35;2.90;;;1.10;;
77287;SDS011;66345;42.694;23.346;2023-05-01T14:25:15;3.55;;;1.38;;
77287;SDS011;66345;42.694;23.346;2023-05-01T14:27:47;2.85;;;1.20;;
77287;SDS011;66345;42.694;23.346;2023-05-01T14:30:14;3.93;;;1.23;;
77287;SDS011;66345;42.694;23.346;2023-05-01T14:33:01;3.50;;;1.20;;
77287;SDS011;66345;42.694;23.346;2023-05-01T14:35:31;3.30;;;1.40;;
77287;SDS011;66345;42.694;23.346;2023-05-01T14:38:04;4.93;;;1.40;;
77287;SDS011;66345;42.694;23.346;2023-05-01T14:40:33;3.13;;;1.05;;
77287;SDS011;66345;42.694;23.346;2023-05-01T14:42:58;3.20;;;1.10;;
77287;SDS011;66345;42.694;23.346;2023-05-01T14:45:24;3.97;;;1.20;;
77287;SDS011;66345;42.694;23.346;2023-05-01T14:47:50;4.17;;;1.30;;
77287;SDS011;66345;42.694;23.346;2023-05-01T14:50:18;3.70;;;1.20;;
77287;SDS011;66345;42.694;23.346;2023-05-01T14:52:54;3.20;;;1.40;;
77287;SDS011;66345;42.694;23.346;2023-05-01T14:55:24;4.13;;;1.23;;
77287;SDS011;66345;42.694;23.346;2023-05-01T14:57:52;3.47;;;1.35;;
77287;SDS011;66345;42.694;23.346;2023-05-01T15:00:18;3.00;;;1.30;;
77287;SDS011;66345;42.694;23.346;2023-05-01T15:02:44;4.10;;;1.10;;